sensor_id;sensor_type;location;lat;lon;timestamp;pressure;altitude;pressure_sealevel;temperature;humidity
34674;BME280;20879;55.668;37.858;2023-03-04T00:00:22;98131.72;;;-1.84;86.38
34674;BME280;20879;55.668;37.858;2023-03-04T00:02:51;98121.44;;;-1.98;86.31
34674;BME280;20879;55.668;37.858;2023-03-04T00:05:21;98124.91;;;-1.86;86.67
34674;BME280;20879;55.668;37.858;2023-03-04T00:07:50;98122.41;;;-1.83;86.72
34674;BME280;20879;55.668;37.858;2023-03-04T00:10:22;98113.97;;;-1.82;86.79
34674;BME280;20879;55.668;37.858;2023-03-04T00:13:02;98111.38;;;-1.90;87.07
34674;BME280;20879;55.668;37.858;2023-03-04T00:15:31;98099.47;;;-1.94;86.87
34674;BME280;20879;55.668;37.858;2023-03-04T00:18:00;98082.53;;;-1.98;87.31
34674;BME280;20879;55.668;37.858;2023-03-04T00:20:34;98100.34;;;-1.89;87.21
34674;BME280;20879;55.668;37.858;2023-03-04T00:23:03;98093.59;;;-1.93;87.32
34674;BME280;20879;55.668;37.858;2023-03-04T00:25:35;98090.16;;;-1.97;87.08
34674;BME280;20879;55.668;37.858;2023-03-04T00:28:04;98098.56;;;-2.02;87.20
34674;BME280;20879;55.668;37.858;2023-03-04T00:30:33;98095.13;;;-2.09;87.52
34674;BME280;20879;55.668;37.858;2023-03-04T00:33:03;98089.13;;;-2.17;87.95
34674;BME280;20879;55.668;37.858;2023-03-04T00:35:32;98075.56;;;-2.21;87.94
34674;BME280;20879;55.668;37.858;2023-03-04T00:38:01;98078.91;;;-2.26;88.45
34674;BME280;20879;55.668;37.858;2023-03-04T00:40:30;98080.69;;;-2.15;88.46
34674;BME280;20879;55.668;37.858;2023-03-04T00:43:02;98082.47;;;-2.07;88.82
34674;BME280;20879;55.668;37.858;2023-03-04T00:45:37;98068.09;;;-2.05;88.66
34674;BME280;20879;55.668;37.858;2023-03-04T00:48:07;98023.09;;;-2.28;88.66
34674;BME280;20879;55.668;37.858;2023-03-04T00:50:37;98063.13;;;-1.95;88.26
34674;BME280;20879;55.668;37.858;2023-03-04T00:53:06;98058.91;;;-1.92;88.30
34674;BME280;20879;55.668;37.858;2023-03-04T00:55:41;98041.09;;;-2.00;88.35
34674;BME280;20879;55.668;37.858;2023-03-04T00:58:13;98055.56;;;-1.87;88.39
34674;BME280;20879;55.668;37.858;2023-03-04T01:00:42;98055.56;;;-1.87;88.43
34674;BME280;20879;55.668;37.858;2023-03-04T01:03:12;98055.59;;;-1.85;88.12
34674;BME280;20879;55.668;37.858;2023-03-04T01:05:41;98046.25;;;-1.86;88.01
34674;BME280;20879;55.668;37.858;2023-03-04T01:08:11;98045.41;;;-1.88;88.50
34674;BME280;20879;55.668;37.858;2023-03-04T01:10:40;98032.63;;;-2.01;88.07
34674;BME280;20879;55.668;37.858;2023-03-04T01:13:09;98046.25;;;-1.86;88.41
34674;BME280;20879;55.668;37.858;2023-03-04T01:15:40;98036.88;;;-1.95;88.61
34674;BME280;20879;55.668;37.858;2023-03-04T01:18:10;98052.13;;;-1.92;88.28
34674;BME280;20879;55.668;37.858;2023-03-04T01:20:40;98045.38;;;-1.96;88.41
34674;BME280;20879;55.668;37.858;2023-03-04T01:23:09;98040.22;;;-1.99;88.34
34674;BME280;20879;55.668;37.858;2023-03-04T01:25:40;98017.16;;;-2.29;88.27
34674;BME280;20879;55.668;37.858;2023-03-04T01:28:15;98034.94;;;-2.27;88.71
34674;BME280;20879;55.668;37.858;2023-03-04T01:30:46;98050.22;;;-2.21;88.67
34674;BME280;20879;55.668;37.858;2023-03-04T01:33:16;98038.22;;;-2.36;89.09
34674;BME280;20879;55.668;37.858;2023-03-04T01:35:45;98028.16;;;-2.31;88.93
34674;BME280;20879;55.668;37.858;2023-03-04T01:38:15;98054.53;;;-2.12;89.07
34674;BME280;20879;55.668;37.858;2023-03-04T01:41:03;98047.81;;;-2.02;89.23
34674;BME280;20879;55.668;37.858;2023-03-04T01:43:34;98041.09;;;-2.02;88.99
34674;BME280;20879;55.668;37.858;2023-03-04T01:46:06;98040.28;;;-1.98;88.73
34674;BME280;20879;55.668;37.858;2023-03-04T01:48:37;98042.72;;;-2.05;89.25
34674;BME280;20879;55.668;37.858;2023-03-04T01:51:11;98041.91;;;-2.04;89.27
34674;BME280;20879;55.668;37.858;2023-03-04T01:53:42;98017.31;;;-2.13;89.01
34674;BME280;20879;55.668;37.858;2023-03-04T01:56:15;98040.28;;;-1.96;89.15
34674;BME280;20879;55.668;37.858;2023-03-04T01:59:08;98036.09;;;-1.89;89.84
34674;BME280;20879;55.668;37.858;2023-03-04T02:01:41;98032.72;;;-1.90;89.00
34674;BME280;20879;55.668;37.858;2023-03-04T02:04:11;98025.09;;;-1.90;88.90
34674;BME280;20879;55.668;37.858;2023-03-04T02:06:48;98024.22;;;-1.94;88.99
34674;BME280;20879;55.668;37.858;2023-03-04T02:09:23;98029.28;;;-1.95;89.53
34674;BME280;20879;55.668;37.858;2023-03-04T02:11:53;97985.16;;;-2.17;89.42
34674;BME280;20879;55.668;37.858;2023-03-04T02:14:23;97994.47;;;-2.15;89.78
34674;BME280;20879;55.668;37.858;2023-03-04T02:16:55;98003.03;;;-2.03;89.15
34674;BME280;20879;55.668;37.858;2023-03-04T02:19:37;98000.56;;;-1.94;89.41
34674;BME280;20879;55.668;37.858;2023-03-04T02:22:15;97998.94;;;-1.86;89.38
34674;BME280;20879;55.668;37.858;2023-03-04T02:24:47;97993.84;;;-1.86;89.34
34674;BME280;20879;55.668;37.858;2023-03-04T02:27:21;97992.09;;;-1.93;89.45
34674;BME280;20879;55.668;37.858;2023-03-04T02:29:51;97991.16;;;-2.06;89.44
34674;BME280;20879;55.668;37.858;2023-03-04T02:32:26;97985.19;;;-2.09;89.85
34674;BME280;20879;55.668;37.858;2023-03-04T02:34:56;97973.38;;;-2.12;89.89
34674;BME280;20879;55.668;37.858;2023-03-04T02:37:30;97986.06;;;-2.11;90.06
34674;BME280;20879;55.668;37.858;2023-03-04T02:40:01;97977.56;;;-2.13;90.14
34674;BME280;20879;55.668;37.858;2023-03-04T02:42:32;97969.97;;;-2.11;90.07
34674;BME280;20879;55.668;37.858;2023-03-04T02:45:02;97970.81;;;-2.14;90.35
34674;BME280;20879;55.668;37.858;2023-03-04T02:47:31;97958.91;;;-2.24;90.12
34674;BME280;20879;55.668;37.858;2023-03-04T02:50:00;97957.16;;;-2.31;90.33
34674;BME280;20879;55.668;37.858;2023-03-04T02:52:30;97963.06;;;-2.31;90.20
34674;BME280;20879;55.668;37.858;2023-03-04T02:54:59;97962.16;;;-2.37;90.22
34674;BME280;20879;55.668;37.858;2023-03-04T02:57:36;97955.38;;;-2.44;90.51
34674;BME280;20879;55.668;37.858;2023-03-04T03:00:07;97950.16;;;-2.58;90.34
34674;BME280;20879;55.668;37.858;2023-03-04T03:02:39;97935.69;;;-2.72;90.62
34674;BME280;20879;55.668;37.858;2023-03-04T03:05:13;97890.69;;;-2.99;91.14
34674;BME280;20879;55.668;37.858;2023-03-04T03:07:48;97920.47;;;-2.73;91.47
34674;BME280;20879;55.668;37.858;2023-03-04T03:10:24;97927.34;;;-2.61;91.57
34674;BME280;20879;55.668;37.858;2023-03-04T03:12:56;97925.66;;;-2.58;91.49
34674;BME280;20879;55.668;37.858;2023-03-04T03:15:31;97912.94;;;-2.67;91.02
34674;BME280;20879;55.668;37.858;2023-03-04T03:18:06;97914.63;;;-2.66;91.54
34674;BME280;20879;55.668;37.858;2023-03-04T03:20:36;97917.25;;;-2.55;91.44
34674;BME280;20879;55.668;37.858;2023-03-04T03:23:05;97917.25;;;-2.54;91.71
34674;BME280;20879;55.668;37.858;2023-03-04T03:25:39;97922.34;;;-2.52;92.06
34674;BME280;20879;55.668;37.858;2023-03-04T03:28:10;97908.81;;;-2.57;91.88
34674;BME280;20879;55.668;37.858;2023-03-04T03:30:40;97912.16;;;-2.60;91.80
34674;BME280;20879;55.668;37.858;2023-03-04T03:33:09;97907.94;;;-2.58;91.92
34674;BME280;20879;55.668;37.858;2023-03-04T03:35:44;97909.63;;;-2.57;92.13
34674;BME280;20879;55.668;37.858;2023-03-04T03:38:13;97908.84;;;-2.51;92.50
34674;BME280;20879;55.668;37.858;2023-03-04T03:40:43;97904.63;;;-2.48;92.81
34674;BME280;20879;55.668;37.858;2023-03-04T03:43:15;97909.75;;;-2.43;92.21
34674;BME280;20879;55.668;37.858;2023-03-04T03:45:44;97901.28;;;-2.47;92.66
34674;BME280;20879;55.668;37.858;2023-03-04T03:48:13;97903.00;;;-2.39;92.94
34674;BME280;20879;55.668;37.858;2023-03-04T03:50:42;97897.94;;;-2.42;92.33
34674;BME280;20879;55.668;37.858;2023-03-04T03:53:17;97899.63;;;-2.43;92.79
34674;BME280;20879;55.668;37.858;2023-03-04T03:55:57;97886.19;;;-2.33;92.89
34674;BME280;20879;55.668;37.858;2023-03-04T03:58:28;97887.88;;;-2.27;93.14
34674;BME280;20879;55.668;37.858;2023-03-04T04:00:58;97870.91;;;-2.39;93.21
34674;BME280;20879;55.668;37.858;2023-03-04T04:03:32;97883.69;;;-2.25;92.78
34674;BME280;20879;55.668;37.858;2023-03-04T04:06:01;97875.28;;;-2.19;93.27
34674;BME280;20879;55.668;37.858;2023-03-04T04:08:30;97871.88;;;-2.18;92.88
34674;BME280;20879;55.668;37.858;2023-03-04T04:11:08;97872.75;;;-2.19;93.61
34674;BME280;20879;55.668;37.858;2023-03-04T04:13:39;97860.06;;;-2.21;93.01
34674;BME280;20879;55.668;37.858;2023-03-04T04:16:09;97858.34;;;-2.22;92.72
34674;BME280;20879;55.668;37.858;2023-03-04T04:18:38;97848.22;;;-2.20;92.94
34674;BME280;20879;55.668;37.858;2023-03-04T04:21:08;97810.03;;;-2.43;93.46
34674;BME280;20879;55.668;37.858;2023-03-04T04:23:37;97860.06;;;-2.16;93.04
34674;BME280;20879;55.668;37.858;2023-03-04T04:26:13;97824.47;;;-2.30;93.39
34674;BME280;20879;55.668;37.858;2023-03-04T04:28:45;97847.44;;;-2.05;93.24
34674;BME280;20879;55.668;37.858;2023-03-04T04:31:14;97845.78;;;-2.05;93.27
34674;BME280;20879;55.668;37.858;2023-03-04T04:33:43;97845.75;;;-2.06;93.05
34674;BME280;20879;55.668;37.858;2023-03-04T04:36:13;97848.31;;;-2.06;93.24
34674;BME280;20879;55.668;37.858;2023-03-04T04:38:43;97850.00;;;-2.01;93.26
34674;BME280;20879;55.668;37.858;2023-03-04T04:41:16;97846.66;;;-1.89;94.10
34674;BME280;20879;55.668;37.858;2023-03-04T04:43:48;97844.97;;;-1.91;92.71
34674;BME280;20879;55.668;37.858;2023-03-04T04:46:18;97843.25;;;-1.97;92.89
34674;BME280;20879;55.668;37.858;2023-03-04T04:48:48;97824.56;;;-2.18;92.63
34674;BME280;20879;55.668;37.858;2023-03-04T04:51:17;97841.50;;;-2.15;92.48
34674;BME280;20879;55.668;37.858;2023-03-04T04:53:47;97837.25;;;-2.15;92.71
34674;BME280;20879;55.668;37.858;2023-03-04T04:56:18;97842.38;;;-2.02;92.88
34674;BME280;20879;55.668;37.858;2023-03-04T04:58:51;97817.81;;;-2.09;92.73
34674;BME280;20879;55.668;37.858;2023-03-04T05:01:20;97846.72;;;-1.84;93.26
34674;BME280;20879;55.668;37.858;2023-03-04T05:03:49;97844.13;;;-1.89;92.32
34674;BME280;20879;55.668;37.858;2023-03-04T05:06:19;97848.38;;;-1.86;92.27
34674;BME280;20879;55.668;37.858;2023-03-04T05:08:48;97843.31;;;-1.83;91.79
34674;BME280;20879;55.668;37.858;2023-03-04T05:11:23;97845.03;;;-1.79;91.53
34674;BME280;20879;55.668;37.858;2023-03-04T05:13:54;97842.47;;;-1.81;91.83
34674;BME280;20879;55.668;37.858;2023-03-04T05:16:23;97830.63;;;-1.85;91.91
34674;BME280;20879;55.668;37.858;2023-03-04T05:18:53;97838.25;;;-1.80;91.68
34674;BME280;20879;55.668;37.858;2023-03-04T05:21:22;97844.19;;;-1.80;91.71
34674;BME280;20879;55.668;37.858;2023-03-04T05:23:56;97834.03;;;-1.83;91.84
34674;BME280;20879;55.668;37.858;2023-03-04T05:26:30;97829.78;;;-1.84;91.90
34674;BME280;20879;55.668;37.858;2023-03-04T05:29:02;97836.59;;;-1.67;91.65
34674;BME280;20879;55.668;37.858;2023-03-04T05:31:37;97825.66;;;-1.51;91.45
34674;BME280;20879;55.668;37.858;2023-03-04T05:34:07;97832.50;;;-1.25;91.22
34674;BME280;20879;55.668;37.858;2023-03-04T05:36:36;97819.81;;;-1.00;90.32
34674;BME280;20879;55.668;37.858;2023-03-04T05:39:05;97821.50;;;-0.76;89.74
34674;BME280;20879;55.668;37.858;2023-03-04T05:41:39;97805.41;;;-0.67;89.25
34674;BME280;20879;55.668;37.858;2023-03-04T05:44:10;97811.34;;;-0.55;88.27
34674;BME280;20879;55.668;37.858;2023-03-04T05:46:46;97765.59;;;-0.78;88.40
34674;BME280;20879;55.668;37.858;2023-03-04T05:49:15;97809.63;;;-0.46;88.33
34674;BME280;20879;55.668;37.858;2023-03-04T05:51:44;97799.47;;;-0.49;87.35
34674;BME280;20879;55.668;37.858;2023-03-04T05:54:13;97805.38;;;-0.40;87.46
34674;BME280;20879;55.668;37.858;2023-03-04T05:56:43;97807.06;;;-0.34;87.16
34674;BME280;20879;55.668;37.858;2023-03-04T05:59:14;97803.66;;;-0.28;86.81
34674;BME280;20879;55.668;37.858;2023-03-04T06:01:52;97790.91;;;-0.13;86.41
34674;BME280;20879;55.668;37.858;2023-03-04T06:04:25;97795.03;;;0.10;85.36
34674;BME280;20879;55.668;37.858;2023-03-04T06:06:55;97790.81;;;0.10;85.25
34674;BME280;20879;55.668;37.858;2023-03-04T06:09:32;97784.78;;;0.28;84.56
34674;BME280;20879;55.668;37.858;2023-03-04T06:12:11;97783.84;;;0.46;84.18
34674;BME280;20879;55.668;37.858;2023-03-04T06:14:42;97780.50;;;0.35;83.39
34674;BME280;20879;55.668;37.858;2023-03-04T06:17:11;97793.25;;;0.30;83.18
34674;BME280;20879;55.668;37.858;2023-03-04T06:19:40;97797.41;;;0.51;83.23
34674;BME280;20879;55.668;37.858;2023-03-04T06:22:10;97791.25;;;0.82;82.45
34674;BME280;20879;55.668;37.858;2023-03-04T06:24:39;97775.84;;;0.99;81.53
34674;BME280;20879;55.668;37.858;2023-03-04T06:27:13;97786.00;;;1.02;80.90
34674;BME280;20879;55.668;37.858;2023-03-04T06:29:45;97787.84;;;0.86;80.30
34674;BME280;20879;55.668;37.858;2023-03-04T06:32:19;97783.69;;;0.71;80.50
34674;BME280;20879;55.668;37.858;2023-03-04T06:34:49;97779.47;;;0.65;80.49
34674;BME280;20879;55.668;37.858;2023-03-04T06:37:18;97777.91;;;0.49;79.92
34674;BME280;20879;55.668;37.858;2023-03-04T06:39:48;97770.97;;;0.69;80.64
34674;BME280;20879;55.668;37.858;2023-03-04T06:42:17;97773.16;;;1.13;79.43
34674;BME280;20879;55.668;37.858;2023-03-04T06:44:49;97766.13;;;1.43;78.09
34674;BME280;20879;55.668;37.858;2023-03-04T06:47:18;97767.03;;;1.35;77.71
34674;BME280;20879;55.668;37.858;2023-03-04T06:49:51;97753.44;;;1.36;77.26
34674;BME280;20879;55.668;37.858;2023-03-04T06:52:21;97761.81;;;1.46;76.82
34674;BME280;20879;55.668;37.858;2023-03-04T06:54:56;97746.47;;;1.52;76.21
34674;BME280;20879;55.668;37.858;2023-03-04T06:57:29;97749.53;;;1.84;76.16
34674;BME280;20879;55.668;37.858;2023-03-04T07:00:00;97741.47;;;2.15;74.96
34674;BME280;20879;55.668;37.858;2023-03-04T07:02:31;97743.75;;;2.36;74.32
34674;BME280;20879;55.668;37.858;2023-03-04T07:05:00;97741.94;;;2.43;73.67
34674;BME280;20879;55.668;37.858;2023-03-04T07:07:30;97737.66;;;2.45;73.66
34674;BME280;20879;55.668;37.858;2023-03-04T07:09:59;97741.06;;;2.44;73.34
34674;BME280;20879;55.668;37.858;2023-03-04T07:12:29;97721.63;;;2.35;73.37
34674;BME280;20879;55.668;37.858;2023-03-04T07:15:00;97734.28;;;2.43;72.44
34674;BME280;20879;55.668;37.858;2023-03-04T07:17:30;97733.34;;;2.49;72.68
34674;BME280;20879;55.668;37.858;2023-03-04T07:20:06;97676.31;;;2.48;72.24
34674;BME280;20879;55.668;37.858;2023-03-04T07:22:35;97717.25;;;2.98;71.35
34674;BME280;20879;55.668;37.858;2023-03-04T07:25:05;97717.38;;;2.92;70.68
34674;BME280;20879;55.668;37.858;2023-03-04T07:27:39;97709.16;;;2.71;70.45
34674;BME280;20879;55.668;37.858;2023-03-04T07:30:11;97696.50;;;2.65;70.06
34674;BME280;20879;55.668;37.858;2023-03-04T07:32:41;97705.94;;;2.60;70.79
34674;BME280;20879;55.668;37.858;2023-03-04T07:35:10;97655.47;;;2.20;70.46
34674;BME280;20879;55.668;37.858;2023-03-04T07:37:39;97701.78;;;2.53;71.00
34674;BME280;20879;55.668;37.858;2023-03-04T07:40:10;97698.16;;;2.66;70.14
34674;BME280;20879;55.668;37.858;2023-03-04T07:42:40;97695.38;;;2.82;70.25
34674;BME280;20879;55.668;37.858;2023-03-04T07:45:16;97694.56;;;3.29;68.79
34674;BME280;20879;55.668;37.858;2023-03-04T07:47:46;97671.56;;;3.70;67.96
34674;BME280;20879;55.668;37.858;2023-03-04T07:50:20;97685.94;;;3.77;66.76
34674;BME280;20879;55.668;37.858;2023-03-04T07:52:50;97690.66;;;3.55;67.18
34674;BME280;20879;55.668;37.858;2023-03-04T07:55:24;97678.06;;;3.44;67.16
34674;BME280;20879;55.668;37.858;2023-03-04T07:58:03;97665.31;;;3.43;67.79
34674;BME280;20879;55.668;37.858;2023-03-04T08:00:34;97672.00;;;3.91;67.09
34674;BME280;20879;55.668;37.858;2023-03-04T08:03:04;97676.09;;;3.99;66.54
34674;BME280;20879;55.668;37.858;2023-03-04T08:05:33;97647.03;;;4.02;66.24
34674;BME280;20879;55.668;37.858;2023-03-04T08:08:02;97667.84;;;3.87;65.71
34674;BME280;20879;55.668;37.858;2023-03-04T08:10:37;97656.59;;;3.92;66.24
34674;BME280;20879;55.668;37.858;2023-03-04T08:13:06;97656.59;;;4.31;65.28
34674;BME280;20879;55.668;37.858;2023-03-04T08:15:41;97678.69;;;4.37;63.85
34674;BME280;20879;55.668;37.858;2023-03-04T08:18:11;97653.50;;;4.17;64.67
34674;BME280;20879;55.668;37.858;2023-03-04T08:20:41;97651.09;;;3.70;65.07
34674;BME280;20879;55.668;37.858;2023-03-04T08:23:11;97656.41;;;3.61;66.14
34674;BME280;20879;55.668;37.858;2023-03-04T08:25:40;97652.53;;;3.43;66.00
34674;BME280;20879;55.668;37.858;2023-03-04T08:28:17;97648.69;;;3.19;66.62
34674;BME280;20879;55.668;37.858;2023-03-04T08:30:53;97651.59;;;2.98;66.54
34674;BME280;20879;55.668;37.858;2023-03-04T08:33:23;97646.47;;;3.00;67.21
34674;BME280;20879;55.668;37.858;2023-03-04T08:35:52;97641.09;;;3.15;66.67
34674;BME280;20879;55.668;37.858;2023-03-04T08:38:21;97639.16;;;3.28;66.67
34674;BME280;20879;55.668;37.858;2023-03-04T08:40:52;97620.78;;;3.52;66.17
34674;BME280;20879;55.668;37.858;2023-03-04T08:43:22;97608.59;;;3.63;65.57
34674;BME280;20879;55.668;37.858;2023-03-04T08:45:54;97631.94;;;3.90;65.07
34674;BME280;20879;55.668;37.858;2023-03-04T08:48:23;97631.44;;;4.11;65.53
34674;BME280;20879;55.668;37.858;2023-03-04T08:50:53;97626.06;;;4.24;64.97
34674;BME280;20879;55.668;37.858;2023-03-04T08:53:22;97602.63;;;4.39;65.39
34674;BME280;20879;55.668;37.858;2023-03-04T08:55:51;97623.25;;;4.69;63.88
34674;BME280;20879;55.668;37.858;2023-03-04T08:58:26;97615.31;;;4.78;64.00
34674;BME280;20879;55.668;37.858;2023-03-04T09:00:58;97612.69;;;4.81;63.30
34674;BME280;20879;55.668;37.858;2023-03-04T09:03:27;97591.06;;;4.59;63.75
34674;BME280;20879;55.668;37.858;2023-03-04T09:05:56;97602.28;;;4.53;63.61
34674;BME280;20879;55.668;37.858;2023-03-04T09:08:26;97609.47;;;4.38;64.26
34674;BME280;20879;55.668;37.858;2023-03-04T09:10:55;97596.69;;;4.37;64.43
34674;BME280;20879;55.668;37.858;2023-03-04T09:13:27;97591.22;;;4.51;63.74
34674;BME280;20879;55.668;37.858;2023-03-04T09:16:08;97590.47;;;4.47;63.77
34674;BME280;20879;55.668;37.858;2023-03-04T09:18:38;97579.44;;;4.45;64.55
34674;BME280;20879;55.668;37.858;2023-03-04T09:21:07;97572.44;;;4.50;64.72
34674;BME280;20879;55.668;37.858;2023-03-04T09:23:37;97568.81;;;4.59;64.37
34674;BME280;20879;55.668;37.858;2023-03-04T09:26:20;97574.19;;;4.50;63.95
34674;BME280;20879;55.668;37.858;2023-03-04T09:28:50;97557.22;;;4.44;65.02
34674;BME280;20879;55.668;37.858;2023-03-04T09:31:22;97562.84;;;4.92;64.68
34674;BME280;20879;55.668;37.858;2023-03-04T09:33:57;97560.03;;;5.60;64.04
34674;BME280;20879;55.668;37.858;2023-03-04T09:36:27;97545.78;;;6.08;62.47
34674;BME280;20879;55.668;37.858;2023-03-04T09:38:58;97515.19;;;6.01;61.53
34674;BME280;20879;55.668;37.858;2023-03-04T09:41:35;97516.03;;;5.73;61.00
34674;BME280;20879;55.668;37.858;2023-03-04T09:44:12;97534.00;;;5.73;60.97
34674;BME280;20879;55.668;37.858;2023-03-04T09:46:46;97510.25;;;5.38;61.43
34674;BME280;20879;55.668;37.858;2023-03-04T09:49:18;97519.66;;;5.07;62.54
34674;BME280;20879;55.668;37.858;2023-03-04T09:51:54;97513.50;;;4.83;62.84
34674;BME280;20879;55.668;37.858;2023-03-04T09:54:40;97513.41;;;4.53;62.98
34674;BME280;20879;55.668;37.858;2023-03-04T09:57:22;97505.63;;;4.25;63.49
34674;BME280;20879;55.668;37.858;2023-03-04T10:00:02;97510.13;;;4.15;63.21
34674;BME280;20879;55.668;37.858;2023-03-04T10:02:46;97502.59;;;4.09;64.15
34674;BME280;20879;55.668;37.858;2023-03-04T10:05:20;97501.13;;;3.99;64.37
34674;BME280;20879;55.668;37.858;2023-03-04T10:07:55;97495.78;;;3.72;63.83
34674;BME280;20879;55.668;37.858;2023-03-04T10:10:31;97494.03;;;3.35;64.95
34674;BME280;20879;55.668;37.858;2023-03-04T10:13:02;97489.91;;;3.31;65.67
34674;BME280;20879;55.668;37.858;2023-03-04T10:15:36;97482.19;;;3.32;65.30
34674;BME280;20879;55.668;37.858;2023-03-04T10:18:15;97480.75;;;3.21;65.21
34674;BME280;20879;55.668;37.858;2023-03-04T10:20:52;97474.38;;;2.98;65.89
34674;BME280;20879;55.668;37.858;2023-03-04T10:23:30;97474.53;;;2.90;66.23
34674;BME280;20879;55.668;37.858;2023-03-04T10:26:01;97456.97;;;2.73;65.91
34674;BME280;20879;55.668;37.858;2023-03-04T10:28:43;97452.72;;;2.74;66.49
34674;BME280;20879;55.668;37.858;2023-03-04T10:31:18;97441.38;;;2.87;65.66
34674;BME280;20879;55.668;37.858;2023-03-04T10:33:57;97448.44;;;3.17;64.78
34674;BME280;20879;55.668;37.858;2023-03-04T10:36:35;97432.66;;;3.35;63.68
34674;BME280;20879;55.668;37.858;2023-03-04T10:39:08;97427.88;;;3.57;63.23
34674;BME280;20879;55.668;37.858;2023-03-04T10:41:42;97424.34;;;3.97;62.55
34674;BME280;20879;55.668;37.858;2023-03-04T10:44:15;97419.16;;;4.32;61.05
34674;BME280;20879;55.668;37.858;2023-03-04T10:46:53;97424.94;;;4.40;60.65
34674;BME280;20879;55.668;37.858;2023-03-04T10:49:26;97414.31;;;4.54;60.61
34674;BME280;20879;55.668;37.858;2023-03-04T10:52:01;97410.78;;;4.58;59.62
34674;BME280;20879;55.668;37.858;2023-03-04T10:54:32;97403.09;;;4.58;60.43
34674;BME280;20879;55.668;37.858;2023-03-04T10:57:12;97396.06;;;4.35;59.89
34674;BME280;20879;55.668;37.858;2023-03-04T10:59:49;97404.78;;;4.28;61.11
34674;BME280;20879;55.668;37.858;2023-03-04T11:02:33;97397.47;;;4.45;61.26
34674;BME280;20879;55.668;37.858;2023-03-04T11:05:16;97383.44;;;4.59;62.33
34674;BME280;20879;55.668;37.858;2023-03-04T11:07:48;97392.22;;;4.50;61.81
34674;BME280;20879;55.668;37.858;2023-03-04T11:10:26;97393.72;;;4.26;62.54
34674;BME280;20879;55.668;37.858;2023-03-04T11:13:11;97394.06;;;4.13;63.43
34674;BME280;20879;55.668;37.858;2023-03-04T11:15:50;97385.94;;;3.97;64.38
34674;BME280;20879;55.668;37.858;2023-03-04T11:18:29;97376.16;;;3.79;64.87
34674;BME280;20879;55.668;37.858;2023-03-04T11:21:05;97372.72;;;3.80;65.51
34674;BME280;20879;55.668;37.858;2023-03-04T11:23:42;97357.72;;;3.31;66.10
34674;BME280;20879;55.668;37.858;2023-03-04T11:26:28;97373.13;;;3.28;67.45
34674;BME280;20879;55.668;37.858;2023-03-04T11:29:06;97375.47;;;3.38;67.70
34674;BME280;20879;55.668;37.858;2023-03-04T11:31:44;97369.72;;;3.29;68.02
34674;BME280;20879;55.668;37.858;2023-03-04T11:34:19;97355.53;;;3.14;68.26
34674;BME280;20879;55.668;37.858;2023-03-04T11:37:00;97359.81;;;3.14;68.02
34674;BME280;20879;55.668;37.858;2023-03-04T11:39:34;97348.84;;;3.09;68.20
34674;BME280;20879;55.668;37.858;2023-03-04T11:42:10;97340.47;;;3.04;68.34
34674;BME280;20879;55.668;37.858;2023-03-04T11:44:41;97343.88;;;3.03;68.83
34674;BME280;20879;55.668;37.858;2023-03-04T11:50:18;97321.16;;;2.51;70.21
34674;BME280;20879;55.668;37.858;2023-03-04T11:55:45;97338.84;;;2.20;72.23
34674;BME280;20879;55.668;37.858;2023-03-04T11:58:34;97324.50;;;2.13;74.52
34674;BME280;20879;55.668;37.858;2023-03-04T12:01:09;97326.25;;;2.10;73.14
34674;BME280;20879;55.668;37.858;2023-03-04T12:04:03;97312.03;;;1.97;75.29
34674;BME280;20879;55.668;37.858;2023-03-04T12:06:44;97321.34;;;2.00;76.17
34674;BME280;20879;55.668;37.858;2023-03-04T12:09:34;97318.75;;;2.03;77.17
34674;BME280;20879;55.668;37.858;2023-03-04T12:12:22;97313.09;;;1.87;77.48
34674;BME280;20879;55.668;37.858;2023-03-04T12:15:00;97302.66;;;1.54;77.43
34674;BME280;20879;55.668;37.858;2023-03-04T12:17:48;97307.09;;;1.43;78.48
34674;BME280;20879;55.668;37.858;2023-03-04T12:20:42;97302.78;;;1.45;79.79
34674;BME280;20879;55.668;37.858;2023-03-04T12:23:34;97293.44;;;1.45;79.57
34674;BME280;20879;55.668;37.858;2023-03-04T12:26:21;97260.69;;;1.22;81.24
34674;BME280;20879;55.668;37.858;2023-03-04T12:29:06;97285.34;;;1.20;81.09
34674;BME280;20879;55.668;37.858;2023-03-04T12:31:49;97207.47;;;0.52;81.73
34674;BME280;20879;55.668;37.858;2023-03-04T12:34:31;97268.94;;;0.85;82.95
34674;BME280;20879;55.668;37.858;2023-03-04T12:37:25;97277.25;;;0.96;84.32
34674;BME280;20879;55.668;37.858;2023-03-04T12:40:19;97265.03;;;1.15;84.26
34674;BME280;20879;55.668;37.858;2023-03-04T12:43:03;97241.50;;;1.01;83.34
34674;BME280;20879;55.668;37.858;2023-03-04T12:53:09;97248.47;;;0.91;81.73
34674;BME280;20879;55.668;37.858;2023-03-04T12:55:43;97246.25;;;0.69;83.21
34674;BME280;20879;55.668;37.858;2023-03-04T12:58:20;97203.47;;;0.36;84.23
34674;BME280;20879;55.668;37.858;2023-03-04T13:01:10;97241.25;;;0.63;86.05
34674;BME280;20879;55.668;37.858;2023-03-04T13:03:46;97244.56;;;0.68;85.72
34674;BME280;20879;55.668;37.858;2023-03-04T13:06:40;97227.59;;;0.67;86.50
34674;BME280;20879;55.668;37.858;2023-03-04T13:09:20;97223.19;;;0.77;86.45
34674;BME280;20879;55.668;37.858;2023-03-04T13:12:00;97227.63;;;0.64;85.90
34674;BME280;20879;55.668;37.858;2023-03-04T13:14:33;97195.84;;;0.36;86.10
34674;BME280;20879;55.668;37.858;2023-03-04T13:17:37;97221.00;;;0.54;88.96
34674;BME280;20879;55.668;37.858;2023-03-04T13:20:31;97205.66;;;0.60;88.50
34674;BME280;20879;55.668;37.858;2023-03-04T13:23:01;97206.38;;;0.67;87.37
34674;BME280;20879;55.668;37.858;2023-03-04T13:25:38;97197.06;;;0.64;87.02
34674;BME280;20879;55.668;37.858;2023-03-04T13:28:27;97206.44;;;0.62;88.04
34674;BME280;20879;55.668;37.858;2023-03-04T13:31:13;97193.72;;;0.62;89.07
34674;BME280;20879;55.668;37.858;2023-03-04T13:33:57;97175.91;;;0.62;87.91
34674;BME280;20879;55.668;37.858;2023-03-04T13:36:52;97176.84;;;0.55;89.74
34674;BME280;20879;55.668;37.858;2023-03-04T13:39:30;97170.69;;;0.68;88.50
34674;BME280;20879;55.668;37.858;2023-03-04T13:42:04;97146.28;;;0.55;88.72